createdAt,value
2019-05-18T00:00:11.882Z,91.11
2019-05-18T00:01:11.816Z,90.97
2019-05-18T00:02:11.827Z,90.59
2019-05-18T00:03:11.838Z,90.88
2019-05-18T00:04:11.841Z,90.97
2019-05-18T00:05:11.851Z,91.06
2019-05-18T00:06:11.863Z,91.06
2019-05-18T00:07:11.871Z,91.06
2019-05-18T00:08:11.874Z,91.25
2019-05-18T00:09:11.884Z,91.25
2019-05-18T00:10:11.891Z,91.45
2019-05-18T00:11:11.899Z,91.64
2019-05-18T00:12:11.908Z,91.54
2019-05-18T00:13:11.916Z,91.16
2019-05-18T00:14:11.929Z,91.45
2019-05-18T00:15:11.935Z,90.88
2019-05-18T00:16:11.937Z,91.06
2019-05-18T00:17:24.498Z,91.54
2019-05-18T00:18:11.960Z,91.64
2019-05-18T00:19:11.965Z,91.30
2019-05-18T00:20:11.981Z,91.40
2019-05-18T00:21:11.985Z,91.30
2019-05-18T00:22:11.995Z,91.40
2019-05-18T00:23:12.001Z,91.59
2019-05-18T00:24:12.010Z,91.78
2019-05-18T00:25:12.065Z,91.88
2019-05-18T00:26:12.029Z,91.97
2019-05-18T00:27:12.037Z,91.97
2019-05-18T00:28:12.048Z,91.69
2019-05-18T00:29:12.063Z,91.78
2019-05-18T00:30:12.062Z,91.78
2019-05-18T00:31:12.069Z,91.88
2019-05-18T00:32:12.093Z,92.26
2019-05-18T00:33:12.085Z,92.16
2019-05-18T00:34:12.094Z,92.36
2019-05-18T00:35:12.112Z,92.26
2019-05-18T00:36:12.109Z,92.83
2019-05-18T00:37:12.121Z,93.21
2019-05-18T00:38:12.132Z,93.31
2019-05-18T00:39:12.137Z,92.55
2019-05-18T00:40:12.145Z,92.83
2019-05-18T00:41:12.152Z,92.36
2019-05-18T00:42:12.161Z,92.16
2019-05-18T00:43:12.169Z,92.74
2019-05-18T00:44:12.179Z,92.36
2019-05-18T00:45:12.186Z,91.88
2019-05-18T00:46:12.195Z,91.69
2019-05-18T00:47:12.199Z,92.26
2019-05-18T00:48:12.215Z,92.16
2019-05-18T00:49:12.216Z,92.16
2019-05-18T00:50:12.234Z,91.11
2019-05-18T00:51:12.236Z,91.69
2019-05-18T00:52:12.245Z,91.97
2019-05-18T00:53:12.254Z,91.97
2019-05-18T00:54:12.262Z,91.97
2019-05-18T00:55:12.267Z,91.88
2019-05-18T00:56:12.296Z,91.40
2019-05-18T00:57:12.286Z,91.88
2019-05-18T00:58:12.296Z,91.50
2019-05-18T00:59:16.102Z,91.59
2019-05-18T01:00:12.311Z,91.88
2019-05-18T01:01:12.326Z,91.78
2019-05-18T01:02:12.326Z,91.30
2019-05-18T01:03:12.336Z,91.02
2019-05-18T01:04:12.343Z,90.64
2019-05-18T01:05:12.353Z,90.35
2019-05-18T01:06:12.361Z,90.73
2019-05-18T01:07:12.366Z,90.83
2019-05-18T01:08:12.377Z,90.50
2019-05-18T01:09:12.388Z,90.35
2019-05-18T01:10:12.395Z,90.97
2019-05-18T01:11:12.401Z,91.07
2019-05-18T01:12:12.409Z,90.88
2019-05-18T01:13:12.418Z,90.88
2019-05-18T01:14:12.422Z,90.31
2019-05-18T01:15:12.437Z,90.40
2019-05-18T01:16:12.445Z,90.50
2019-05-18T01:17:12.452Z,90.59
2019-05-18T01:18:12.459Z,90.78
2019-05-18T01:19:12.469Z,91.36
2019-05-18T01:20:12.477Z,90.88
2019-05-18T01:21:12.483Z,90.21
2019-05-18T01:22:12.492Z,90.50
2019-05-18T01:23:12.499Z,90.31
2019-05-18T01:24:12.509Z,90.31
2019-05-18T01:25:12.516Z,90.07
2019-05-18T01:26:12.525Z,90.45
2019-05-18T01:27:12.534Z,90.17
2019-05-18T01:28:12.544Z,90.55
2019-05-18T01:29:12.551Z,90.36
2019-05-18T01:30:12.551Z,89.97
2019-05-18T01:31:12.565Z,90.07
2019-05-18T01:32:12.578Z,90.26
2019-05-18T01:33:12.581Z,90.17
2019-05-18T01:34:12.590Z,90.36
2019-05-18T01:35:12.607Z,90.26
2019-05-18T01:36:12.609Z,90.55
2019-05-18T01:37:12.615Z,90.64
2019-05-18T01:38:12.621Z,90.45
2019-05-18T01:39:12.632Z,90.55
2019-05-18T01:40:12.641Z,89.74
2019-05-18T01:41:12.653Z,90.41
2019-05-18T01:42:12.654Z,90.59
2019-05-18T01:43:12.661Z,90.12
2019-05-18T01:44:12.667Z,90.12
2019-05-18T01:45:17.303Z,90.03
2019-05-18T01:46:12.687Z,89.83
2019-05-18T01:47:12.696Z,89.74
2019-05-18T01:48:14.559Z,90.22
2019-05-18T01:49:12.710Z,90.03
2019-05-18T01:50:12.720Z,89.93
2019-05-18T01:51:12.726Z,90.12
2019-05-18T01:52:12.738Z,89.93
2019-05-18T01:53:12.741Z,90.31
2019-05-18T01:54:12.757Z,90.50
2019-05-18T01:55:12.757Z,90.50
2019-05-18T01:56:12.766Z,90.59
2019-05-18T01:57:12.775Z,90.79
2019-05-18T01:58:12.778Z,89.64
2019-05-18T01:59:12.784Z,89.93
2019-05-18T02:00:12.797Z,89.93
2019-05-18T02:01:12.801Z,90.12
2019-05-18T02:02:12.815Z,89.83
2019-05-18T02:03:12.822Z,89.83
2019-05-18T02:04:12.830Z,89.93
2019-05-18T02:05:12.843Z,89.83
2019-05-18T02:06:12.842Z,90.12
2019-05-18T02:07:12.859Z,89.83
2019-05-18T02:08:12.864Z,89.69
2019-05-18T02:09:12.862Z,89.60
2019-05-18T02:10:12.870Z,89.12
2019-05-18T02:11:12.882Z,89.89
2019-05-18T02:12:12.889Z,89.60
2019-05-18T02:13:12.902Z,89.79
2019-05-18T02:14:12.903Z,90.45
2019-05-18T02:15:12.919Z,89.79
2019-05-18T02:16:12.922Z,89.69
2019-05-18T02:17:12.932Z,89.60
2019-05-18T02:18:26.871Z,89.60
2019-05-18T02:19:12.949Z,89.12
2019-05-18T02:20:12.955Z,89.22
2019-05-18T02:21:12.964Z,89.22
2019-05-18T02:22:12.969Z,88.93
2019-05-18T02:23:12.979Z,88.93
2019-05-18T02:24:13.011Z,89.60
2019-05-18T02:25:12.993Z,90.45
2019-05-18T02:26:13.004Z,89.89
2019-05-18T02:27:13.007Z,89.69
2019-05-18T02:28:13.017Z,89.79
2019-05-18T02:29:13.027Z,89.03
2019-05-18T02:30:17.231Z,89.22
2019-05-18T02:31:13.045Z,89.31
2019-05-18T02:32:13.052Z,89.31
2019-05-18T02:33:13.052Z,88.55
2019-05-18T02:34:13.065Z,88.64
2019-05-18T02:35:13.099Z,88.26
2019-05-18T02:36:13.085Z,88.45
2019-05-18T02:37:13.083Z,88.55
2019-05-18T02:38:13.097Z,88.17
2019-05-18T02:39:13.108Z,88.45
2019-05-18T02:40:13.113Z,88.45
2019-05-18T02:41:13.135Z,87.79
2019-05-18T02:42:13.127Z,87.31
2019-05-18T02:43:13.134Z,87.31
2019-05-18T02:44:13.143Z,87.69
2019-05-18T02:45:13.150Z,87.88
2019-05-18T02:46:13.157Z,88.26
2019-05-18T02:47:13.169Z,88.07
2019-05-18T02:48:13.170Z,87.88
2019-05-18T02:49:13.179Z,88.36
2019-05-18T02:50:13.201Z,88.45
2019-05-18T02:51:13.191Z,88.41
2019-05-18T02:52:13.200Z,88.93
2019-05-18T02:53:13.214Z,88.41
2019-05-18T02:54:13.219Z,88.51
2019-05-18T02:55:13.224Z,88.60
2019-05-18T02:56:13.240Z,88.60
2019-05-18T02:57:13.263Z,88.70
2019-05-18T02:58:13.250Z,88.51
2019-05-18T02:59:13.257Z,89.12
2019-05-18T03:00:13.265Z,88.79
2019-05-18T03:01:13.272Z,88.70
2019-05-18T03:02:13.277Z,88.60
2019-05-18T03:03:13.285Z,88.51
2019-05-18T03:04:13.296Z,88.60
2019-05-18T03:05:13.310Z,88.70
2019-05-18T03:06:13.308Z,88.98
2019-05-18T03:07:13.318Z,88.70
2019-05-18T03:08:13.329Z,88.98
2019-05-18T03:09:13.330Z,88.60
2019-05-18T03:10:13.340Z,88.60
2019-05-18T03:11:13.350Z,89.17
2019-05-18T03:12:13.356Z,88.98
2019-05-18T03:13:13.369Z,89.75
2019-05-18T03:14:13.377Z,89.65
2019-05-18T03:15:13.377Z,89.26
2019-05-18T03:16:13.388Z,89.26
2019-05-18T03:17:13.390Z,88.79
2019-05-18T03:18:13.404Z,88.79
2019-05-18T03:19:13.410Z,88.41
2019-05-18T03:20:13.418Z,88.22
2019-05-18T03:21:13.418Z,88.12
2019-05-18T03:22:13.432Z,87.74
2019-05-18T03:23:13.438Z,88.03
2019-05-18T03:24:13.452Z,87.27
2019-05-18T03:25:13.465Z,87.46
2019-05-18T03:26:13.464Z,87.55
2019-05-18T03:27:13.474Z,88.03
2019-05-18T03:28:13.476Z,88.03
2019-05-18T03:29:13.489Z,88.60
2019-05-18T03:30:13.496Z,88.70
2019-05-18T03:31:13.502Z,88.41
2019-05-18T03:32:13.508Z,88.41
2019-05-18T03:33:13.555Z,88.03
2019-05-18T03:34:13.526Z,88.03
2019-05-18T03:35:13.537Z,88.03
2019-05-18T03:36:13.538Z,87.84
2019-05-18T03:37:13.545Z,87.93
2019-05-18T03:38:13.551Z,87.84
2019-05-18T03:39:13.568Z,87.74
2019-05-18T03:40:13.567Z,88.22
2019-05-18T03:41:13.577Z,88.03
2019-05-18T03:42:13.584Z,87.93
2019-05-18T03:43:13.592Z,87.93
2019-05-18T03:44:13.599Z,87.65
2019-05-18T03:45:13.614Z,88.12
2019-05-18T03:46:13.613Z,87.36
2019-05-18T03:47:13.622Z,86.98
2019-05-18T03:48:13.631Z,88.03
2019-05-18T03:49:26.090Z,88.12
2019-05-18T03:50:13.661Z,88.60
2019-05-18T03:51:13.648Z,88.60
2019-05-18T03:52:13.657Z,88.31
2019-05-18T03:53:13.665Z,87.36
2019-05-18T03:54:13.670Z,87.84
2019-05-18T03:55:13.683Z,87.84
2019-05-18T03:56:13.692Z,88.03
2019-05-18T03:57:13.700Z,87.93
2019-05-18T03:58:13.703Z,87.27
2019-05-18T03:59:13.710Z,87.36
2019-05-18T04:00:13.716Z,87.17
2019-05-18T04:01:13.749Z,86.79
2019-05-18T04:02:13.732Z,86.79
2019-05-18T04:03:13.739Z,87.36
2019-05-18T04:04:13.747Z,88.22
2019-05-18T04:05:13.814Z,87.84
2019-05-18T04:06:13.762Z,87.89
2019-05-18T04:07:13.766Z,87.93
2019-05-18T04:08:13.783Z,87.74
2019-05-18T04:09:13.786Z,87.74
2019-05-18T04:10:13.789Z,88.22
2019-05-18T04:11:13.798Z,87.79
2019-05-18T04:12:13.816Z,87.79
2019-05-18T04:13:13.820Z,87.98
2019-05-18T04:14:13.828Z,88.65
2019-05-18T04:15:13.823Z,88.18
2019-05-18T04:16:13.837Z,88.46
2019-05-18T04:17:13.850Z,88.60
2019-05-18T04:18:13.854Z,88.51
2019-05-18T04:19:13.859Z,88.56
2019-05-18T04:20:13.863Z,87.98
2019-05-18T04:21:13.875Z,87.93
2019-05-18T04:22:13.909Z,88.03
2019-05-18T04:23:13.887Z,88.03
2019-05-18T04:24:13.896Z,87.84
2019-05-18T04:25:13.901Z,88.41
2019-05-18T04:26:13.910Z,88.31
2019-05-18T04:27:13.931Z,88.60
2019-05-18T04:28:13.926Z,88.79
2019-05-18T04:29:13.931Z,87.84
2019-05-18T04:30:13.938Z,88.51
2019-05-18T04:31:13.948Z,88.79
2019-05-18T04:32:13.959Z,88.22
2019-05-18T04:33:13.962Z,88.70
2019-05-18T04:34:13.971Z,88.79
2019-05-18T04:35:13.978Z,88.70
2019-05-18T04:36:13.990Z,88.12
2019-05-18T04:37:13.993Z,88.22
2019-05-18T04:38:13.999Z,88.37
2019-05-18T04:39:14.010Z,87.93
2019-05-18T04:40:14.014Z,88.46
2019-05-18T04:41:14.021Z,88.27
2019-05-18T04:42:14.030Z,88.46
2019-05-18T04:43:14.039Z,88.56
2019-05-18T04:44:14.046Z,88.75
2019-05-18T04:45:14.053Z,88.08
2019-05-18T04:46:14.057Z,87.89
2019-05-18T04:47:14.064Z,88.22
2019-05-18T04:48:14.076Z,88.70
2019-05-18T04:49:14.083Z,88.60
2019-05-18T04:50:14.090Z,88.51
2019-05-18T04:51:14.104Z,88.70
2019-05-18T04:52:14.100Z,88.60
2019-05-18T04:53:14.119Z,88.60
2019-05-18T04:54:14.120Z,88.79
2019-05-18T04:55:14.122Z,89.17
2019-05-18T04:56:14.135Z,88.98
2019-05-18T04:57:14.142Z,89.07
2019-05-18T04:58:14.147Z,89.55
2019-05-18T04:59:14.151Z,88.98
2019-05-18T05:00:14.173Z,89.94
2019-05-18T05:01:14.175Z,90.03
2019-05-18T05:02:14.179Z,89.94
2019-05-18T05:03:14.185Z,90.22
2019-05-18T05:04:14.193Z,90.41
2019-05-18T05:05:14.201Z,90.12
2019-05-18T05:06:14.223Z,89.75
2019-05-18T05:07:14.221Z,89.75
2019-05-18T05:08:14.226Z,90.03
2019-05-18T05:09:14.227Z,90.22
2019-05-18T05:10:14.241Z,90.70
2019-05-18T05:11:14.246Z,90.41
2019-05-18T05:12:14.253Z,90.36
2019-05-18T05:13:14.257Z,90.55
2019-05-18T05:14:14.263Z,90.74
2019-05-18T05:15:14.276Z,91.13
2019-05-18T05:16:14.280Z,91.13
2019-05-18T05:17:14.292Z,91.22
2019-05-18T05:18:14.297Z,91.03
2019-05-18T05:19:14.303Z,91.13
2019-05-18T05:20:19.571Z,91.41
2019-05-18T05:21:14.322Z,92.08
2019-05-18T05:22:14.327Z,91.60
2019-05-18T05:23:14.337Z,91.41
2019-05-18T05:24:14.343Z,90.84
2019-05-18T05:25:14.348Z,90.59
2019-05-18T05:26:14.357Z,90.31
2019-05-18T05:27:14.365Z,90.22
2019-05-18T05:28:14.372Z,90.59
2019-05-18T05:29:14.380Z,90.22
2019-05-18T05:30:14.393Z,90.22
2019-05-18T05:31:14.396Z,90.03
2019-05-18T05:32:14.407Z,89.93
2019-05-18T05:33:14.407Z,89.74
2019-05-18T05:34:14.419Z,89.17
2019-05-18T05:35:14.428Z,89.83
2019-05-18T05:36:14.430Z,89.83
2019-05-18T05:37:14.440Z,90.22
2019-05-18T05:38:14.445Z,90.12
2019-05-18T05:39:14.454Z,90.12
2019-05-18T05:40:14.482Z,90.59
2019-05-18T05:41:16.661Z,90.31
2019-05-18T05:42:14.483Z,90.22
2019-05-18T05:43:14.486Z,89.93
2019-05-18T05:44:14.491Z,89.83
2019-05-18T05:45:14.499Z,90.12
2019-05-18T05:46:14.506Z,89.93
2019-05-18T05:47:14.517Z,90.59
2019-05-18T05:48:14.525Z,90.88
2019-05-18T05:49:14.528Z,91.17
2019-05-18T05:50:14.537Z,90.98
2019-05-18T05:51:14.546Z,91.07
2019-05-18T05:52:14.555Z,90.88
2019-05-18T05:53:14.565Z,90.98
2019-05-18T05:54:14.569Z,91.55
2019-05-18T05:55:14.579Z,91.46
2019-05-18T05:56:14.587Z,91.55
2019-05-18T05:57:14.589Z,91.46
2019-05-18T05:58:14.600Z,91.21
2019-05-18T05:59:14.607Z,91.50
2019-05-18T06:00:14.616Z,91.31
2019-05-18T06:01:14.623Z,91.21
2019-05-18T06:02:14.628Z,91.21
2019-05-18T06:03:14.638Z,90.55
2019-05-18T06:04:14.647Z,91.12
2019-05-18T06:05:14.654Z,91.31
2019-05-18T06:06:14.662Z,91.41
2019-05-18T06:07:14.669Z,91.60
2019-05-18T06:08:14.673Z,91.60
2019-05-18T06:09:14.685Z,91.50
2019-05-18T06:10:14.693Z,91.21
2019-05-18T06:11:14.713Z,91.98
2019-05-18T06:12:14.711Z,91.69
2019-05-18T06:13:14.718Z,91.78
2019-05-18T06:14:14.718Z,92.46
2019-05-18T06:15:14.731Z,92.60
2019-05-18T06:16:14.740Z,92.50
2019-05-18T06:17:14.747Z,92.69
2019-05-18T06:18:14.764Z,92.12
2019-05-18T06:19:14.786Z,92.12
2019-05-18T06:20:14.769Z,92.21
2019-05-18T06:21:14.779Z,92.12
2019-05-18T06:22:14.791Z,92.12
2019-05-18T06:23:14.790Z,92.50
2019-05-18T06:24:14.801Z,92.12
2019-05-18T06:25:14.827Z,92.50
2019-05-18T06:26:14.823Z,92.31
2019-05-18T06:27:14.825Z,92.31
2019-05-18T06:28:14.832Z,92.50
2019-05-18T06:29:14.839Z,92.60
2019-05-18T06:30:14.848Z,92.69
2019-05-18T06:31:14.859Z,93.36
2019-05-18T06:32:14.860Z,93.60
2019-05-18T06:33:14.868Z,93.70
2019-05-18T06:34:14.880Z,93.88
2019-05-18T06:35:14.884Z,93.41
2019-05-18T06:36:14.896Z,93.31
2019-05-18T06:37:14.903Z,93.31
2019-05-18T06:38:14.910Z,93.41
2019-05-18T06:39:14.916Z,93.12
2019-05-18T06:40:14.927Z,93.70
2019-05-18T06:41:14.933Z,92.93
2019-05-18T06:42:14.964Z,93.50
2019-05-18T06:43:14.947Z,93.70
2019-05-18T06:44:14.958Z,93.70
2019-05-18T06:45:14.971Z,93.88
2019-05-18T06:46:14.971Z,93.31
2019-05-18T06:47:14.981Z,93.55
2019-05-18T06:48:14.990Z,93.93
2019-05-18T06:49:15.005Z,93.65
2019-05-18T06:50:15.009Z,93.55
2019-05-18T06:51:15.022Z,93.36
2019-05-18T06:52:15.019Z,93.16
2019-05-18T06:53:15.028Z,93.16
2019-05-18T06:54:15.036Z,93.55
2019-05-18T06:55:15.046Z,92.97
2019-05-18T06:56:15.058Z,93.26
2019-05-18T06:57:15.061Z,93.65
2019-05-18T06:58:15.070Z,93.36
2019-05-18T06:59:16.390Z,93.36
2019-05-18T07:00:15.087Z,93.45
2019-05-18T07:01:15.092Z,93.40
2019-05-18T07:02:15.101Z,93.69
2019-05-18T07:03:15.107Z,92.83
2019-05-18T07:04:15.118Z,91.97
2019-05-18T07:05:15.128Z,92.54
2019-05-18T07:06:15.131Z,92.35
2019-05-18T07:07:15.142Z,92.45
2019-05-18T07:08:15.156Z,92.54
2019-05-18T07:09:15.156Z,92.64
2019-05-18T07:10:15.195Z,92.93
2019-05-18T07:11:15.176Z,92.45
2019-05-18T07:12:15.186Z,93.64
2019-05-18T07:13:15.191Z,93.74
2019-05-18T07:14:25.250Z,93.84
2019-05-18T07:15:15.210Z,93.93
2019-05-18T07:16:15.215Z,93.45
2019-05-18T07:17:15.227Z,93.64
2019-05-18T07:18:15.239Z,92.49
2019-05-18T07:19:15.244Z,92.21
2019-05-18T07:20:15.252Z,91.83
2019-05-18T07:21:22.401Z,91.06
2019-05-18T07:22:15.266Z,90.96
2019-05-18T07:23:15.277Z,90.96
2019-05-18T07:24:15.303Z,92.06
2019-05-18T07:25:15.300Z,91.68
2019-05-18T07:26:15.305Z,91.77
2019-05-18T07:27:15.309Z,92.16
2019-05-18T07:28:15.322Z,91.58
2019-05-18T07:29:15.326Z,91.39
2019-05-18T07:30:15.339Z,91.20
2019-05-18T07:31:15.343Z,91.77
2019-05-18T07:32:15.355Z,92.73
2019-05-18T07:33:15.358Z,93.12
2019-05-18T07:34:15.368Z,92.44
2019-05-18T07:35:15.377Z,92.73
2019-05-18T07:36:15.390Z,91.68
2019-05-18T07:37:15.396Z,91.30
2019-05-18T07:38:15.403Z,91.01
2019-05-18T07:39:15.417Z,91.49
2019-05-18T07:40:15.423Z,91.49
2019-05-18T07:41:15.433Z,92.63
2019-05-18T07:42:15.440Z,93.50
2019-05-18T07:43:15.449Z,93.59
2019-05-18T07:44:15.461Z,93.69
2019-05-18T07:45:15.464Z,93.50
2019-05-18T07:46:15.473Z,93.50
2019-05-18T07:47:15.481Z,93.40
2019-05-18T07:48:15.486Z,93.50
2019-05-18T07:49:15.497Z,92.35
2019-05-18T07:50:15.507Z,93.02
2019-05-18T07:51:15.517Z,91.87
2019-05-18T07:52:17.276Z,91.58
2019-05-18T07:53:15.531Z,91.92
2019-05-18T07:54:15.541Z,91.34
2019-05-18T07:55:15.551Z,91.44
2019-05-18T07:56:15.560Z,91.20
2019-05-18T07:57:15.570Z,91.63
2019-05-18T07:58:15.589Z,93.02
2019-05-18T07:59:15.581Z,93.54
2019-05-18T08:00:15.590Z,92.87
2019-05-18T08:01:15.601Z,92.58
2019-05-18T08:02:15.610Z,92.49
2019-05-18T08:03:15.616Z,92.21
2019-05-18T08:04:15.629Z,91.25
2019-05-18T08:05:15.636Z,91.15
2019-05-18T08:06:15.641Z,91.05
2019-05-18T08:07:15.652Z,90.96
2019-05-18T08:08:15.661Z,91.92
2019-05-18T08:09:15.667Z,91.82
2019-05-18T08:10:15.681Z,93.07
2019-05-18T08:11:15.717Z,92.97
2019-05-18T08:12:15.694Z,92.68
2019-05-18T08:13:15.775Z,92.58
2019-05-18T08:14:15.715Z,92.78
2019-05-18T08:15:15.722Z,92.30
2019-05-18T08:16:15.734Z,92.30
2019-05-18T08:17:15.740Z,92.30
2019-05-18T08:18:15.748Z,91.44
2019-05-18T08:19:15.758Z,91.92
2019-05-18T08:20:15.766Z,91.34
2019-05-18T08:21:15.784Z,91.25
2019-05-18T08:22:15.785Z,91.05
2019-05-18T08:23:15.795Z,91.25
2019-05-18T08:24:15.803Z,90.77
2019-05-18T08:25:15.810Z,90.77
2019-05-18T08:26:15.831Z,90.96
2019-05-18T08:27:15.831Z,91.19
2019-05-18T08:28:15.845Z,91.29
2019-05-18T08:29:15.849Z,89.76
2019-05-18T08:30:15.863Z,88.90
2019-05-18T08:31:15.865Z,89.47
2019-05-18T08:32:15.872Z,88.51
2019-05-18T08:33:15.880Z,89.86
2019-05-18T08:34:15.893Z,89.95
2019-05-18T08:35:15.902Z,89.28
2019-05-18T08:36:15.911Z,89.28
2019-05-18T08:37:15.946Z,89.66
2019-05-18T08:38:15.928Z,89.37
2019-05-18T08:39:15.934Z,90.53
2019-05-18T08:40:15.944Z,91.19
2019-05-18T08:41:15.954Z,89.28
2019-05-18T08:42:15.965Z,89.66
2019-05-18T08:43:15.967Z,90.62
2019-05-18T08:44:15.982Z,90.95
2019-05-18T08:45:15.987Z,89.42
2019-05-18T08:46:15.998Z,87.41
2019-05-18T08:47:16.011Z,87.60
2019-05-18T08:48:16.015Z,87.21
2019-05-18T08:49:16.028Z,85.88
2019-05-18T08:50:16.035Z,87.31
2019-05-18T08:51:16.040Z,87.64
2019-05-18T08:52:16.055Z,87.35
2019-05-18T08:53:16.065Z,88.12
2019-05-18T08:54:16.070Z,87.45
2019-05-18T08:55:16.079Z,87.64
2019-05-18T08:56:16.097Z,87.84
2019-05-18T08:57:16.098Z,84.86
2019-05-18T08:58:16.107Z,84.58
2019-05-18T08:59:16.117Z,85.15
2019-05-18T09:00:16.125Z,86.01
2019-05-18T09:01:16.132Z,86.01
2019-05-18T09:02:17.684Z,86.49
2019-05-18T09:03:23.848Z,86.40
2019-05-18T09:05:20.641Z,86.15
2019-05-18T09:06:20.638Z,85.67
2019-05-18T09:08:25.238Z,83.18
2019-05-18T09:09:25.262Z,83.18
2019-05-18T09:11:29.629Z,84.33
2019-05-18T09:12:29.623Z,84.91
2019-05-18T09:14:34.108Z,85.42
2019-05-18T09:15:34.116Z,82.12
2019-05-18T09:17:38.619Z,82.31
2019-05-18T09:18:38.608Z,84.42
2019-05-18T09:20:43.080Z,83.31
2019-05-18T09:21:43.086Z,84.08
2019-05-18T09:23:36.510Z,84.95
2019-05-18T09:24:36.511Z,81.01
2019-05-18T09:26:41.016Z,80.82
2019-05-18T09:27:41.007Z,81.72
2019-05-18T09:29:45.520Z,80.38
2019-05-18T09:30:45.507Z,80.57
2019-05-18T09:32:50.011Z,79.84
2019-05-18T09:33:50.015Z,80.51
2019-05-18T09:35:55.541Z,79.55
2019-05-18T09:36:55.542Z,80.42
2019-05-18T09:39:00.075Z,81.04
2019-05-18T09:40:00.061Z,81.42
2019-05-18T09:42:04.575Z,81.32
2019-05-18T09:43:04.578Z,79.02
2019-05-18T09:45:09.114Z,77.86
2019-05-18T09:46:09.110Z,80.07
2019-05-18T09:48:13.609Z,79.79
2019-05-18T09:49:13.609Z,78.06
2019-05-18T09:51:18.122Z,76.81
2019-05-18T09:52:18.127Z,79.02
2019-05-18T09:54:11.589Z,80.75
2019-05-18T09:55:11.552Z,80.07
2019-05-18T09:57:16.055Z,82.42
2019-05-18T09:58:16.060Z,82.57
2019-05-18T10:00:20.546Z,77.67
2019-05-18T10:01:20.647Z,80.27
2019-05-18T10:03:25.081Z,82.42
2019-05-18T10:04:25.060Z,83.48
2019-05-18T10:05:25.120Z,80.55
2019-05-18T10:06:25.080Z,81.37
2019-05-18T10:07:25.154Z,79.21
2019-05-18T10:08:25.097Z,79.50
2019-05-18T10:09:25.401Z,78.25
2019-05-18T10:10:25.119Z,79.69
2019-05-18T10:11:25.144Z,80.46
2019-05-18T10:12:25.138Z,79.60
2019-05-18T10:13:25.178Z,78.44
2019-05-18T10:14:25.158Z,78.25
2019-05-18T10:15:25.175Z,77.51
2019-05-18T10:16:25.183Z,79.40
2019-05-18T10:17:25.198Z,78.15
2019-05-18T10:18:25.206Z,77.86
2019-05-18T10:19:25.227Z,79.30
2019-05-18T10:20:25.227Z,79.98
2019-05-18T10:21:25.243Z,79.63
2019-05-18T10:22:25.252Z,79.92
2019-05-18T10:23:25.262Z,81.17
2019-05-18T10:24:25.273Z,78.28
2019-05-18T10:25:25.282Z,76.65
2019-05-18T10:26:25.292Z,78.00
2019-05-18T10:27:25.299Z,79.53
2019-05-18T10:28:25.312Z,79.35
2019-05-18T10:29:25.327Z,78.58
2019-05-18T10:30:25.336Z,77.61
2019-05-18T10:31:25.345Z,77.61
2019-05-18T10:32:25.352Z,76.75
2019-05-18T10:33:25.362Z,77.08
2019-05-18T10:34:25.375Z,76.88
2019-05-18T10:35:25.389Z,77.26
2019-05-18T10:36:25.397Z,78.61
2019-05-18T10:37:25.410Z,73.51
2019-05-18T10:38:25.427Z,73.03
2019-05-18T10:39:25.431Z,72.26
2019-05-18T10:40:25.447Z,73.42
2019-05-18T10:41:25.448Z,74.86
2019-05-18T10:42:25.461Z,76.50
2019-05-18T10:43:25.479Z,77.94
2019-05-18T10:44:25.484Z,74.96
2019-05-18T10:45:25.502Z,76.11
2019-05-18T10:46:25.508Z,77.17
2019-05-18T10:47:25.519Z,74.76
2019-05-18T10:48:25.524Z,73.03
2019-05-18T10:49:25.538Z,73.61
2019-05-18T10:50:25.569Z,70.72
2019-05-18T10:51:25.556Z,74.86
2019-05-18T10:52:25.571Z,76.63
2019-05-18T10:53:28.847Z,73.03
2019-05-18T10:54:25.592Z,74.32
2019-05-18T10:55:25.607Z,73.74
2019-05-18T10:56:25.614Z,75.38
2019-05-18T10:57:25.625Z,74.90
2019-05-18T10:58:25.643Z,73.36
2019-05-18T10:59:25.651Z,74.32
2019-05-18T11:00:25.659Z,74.41
2019-05-18T11:01:25.673Z,74.41
2019-05-18T11:02:25.682Z,72.20
2019-05-18T11:03:25.694Z,71.81
2019-05-18T11:04:25.705Z,74.93
2019-05-18T11:05:25.717Z,72.88
2019-05-18T11:06:25.726Z,73.36
2019-05-18T11:07:28.849Z,72.78
2019-05-18T11:08:25.749Z,71.34
2019-05-18T11:09:25.765Z,71.34
2019-05-18T11:10:25.773Z,72.01
2019-05-18T11:11:25.789Z,71.34
2019-05-18T11:12:25.792Z,71.37
2019-05-18T11:13:25.805Z,71.56
2019-05-18T11:14:25.824Z,70.64
2019-05-18T11:15:25.827Z,68.42
2019-05-18T11:16:25.868Z,69.57
2019-05-18T11:17:25.849Z,70.86
2019-05-18T11:18:25.865Z,69.64
2019-05-18T11:19:25.870Z,69.35
2019-05-18T11:20:25.882Z,69.49
2019-05-18T11:21:25.898Z,64.21
2019-05-18T11:22:25.914Z,64.14
2019-05-18T11:23:25.926Z,63.21
2019-05-18T11:24:25.976Z,64.11
2019-05-18T11:25:25.953Z,64.82
2019-05-18T11:26:25.963Z,64.17
2019-05-18T11:27:25.980Z,65.50
2019-05-18T11:28:25.993Z,63.88
2019-05-18T11:29:26.016Z,63.23
2019-05-18T11:30:26.018Z,57.25
2019-05-18T11:31:26.033Z,58.05
2019-05-18T11:32:26.047Z,55.43
2019-05-18T11:33:26.063Z,52.52
2019-05-18T11:34:26.087Z,55.11
2019-05-18T11:35:26.094Z,55.26
2019-05-18T11:36:26.111Z,58.81
2019-05-18T11:37:26.123Z,58.74
2019-05-18T11:38:26.139Z,58.70
2019-05-18T11:39:26.150Z,55.43
2019-05-18T11:40:26.164Z,50.70
2019-05-18T11:41:26.179Z,50.63
2019-05-18T11:42:26.208Z,52.23
2019-05-18T11:43:26.223Z,52.26
2019-05-18T11:44:26.235Z,51.14
2019-05-18T11:45:26.274Z,49.71
2019-05-18T11:46:26.264Z,47.95
2019-05-18T11:47:26.285Z,49.54
2019-05-18T11:48:26.294Z,47.92
2019-05-18T11:49:29.088Z,45.12
2019-05-18T11:50:26.328Z,46.21
2019-05-18T11:51:26.349Z,46.00
2019-05-18T11:52:26.367Z,47.88
2019-05-18T11:53:26.380Z,49.46
2019-05-18T11:54:26.407Z,47.66
2019-05-18T11:55:26.420Z,45.84
2019-05-18T11:56:26.437Z,43.10
2019-05-18T11:57:26.455Z,43.42
2019-05-18T11:58:26.474Z,42.17
2019-05-18T11:59:26.492Z,43.38
2019-05-18T12:00:26.519Z,42.82
2019-05-18T12:01:26.529Z,40.56
2019-05-18T12:02:26.549Z,40.19
2019-05-18T12:03:26.570Z,37.17
2019-05-18T12:04:26.585Z,37.37
2019-05-18T12:05:26.607Z,39.15
2019-05-18T12:06:26.632Z,40.74
2019-05-18T12:07:26.645Z,40.35
2019-05-18T12:08:26.665Z,40.97
2019-05-18T12:09:26.706Z,41.60
2019-05-18T12:10:26.704Z,45.34
2019-05-18T12:11:26.723Z,46.56
2019-05-18T12:12:26.746Z,45.71
2019-05-18T12:13:26.762Z,42.16
2019-05-18T12:14:26.782Z,39.96
2019-05-18T12:15:26.797Z,38.92
2019-05-18T12:16:26.819Z,36.41
2019-05-18T12:17:26.838Z,36.35
2019-05-18T12:18:26.855Z,36.37
2019-05-18T12:19:26.874Z,35.72
2019-05-18T12:20:26.893Z,36.62
2019-05-18T12:21:26.911Z,33.51
2019-05-18T12:22:26.933Z,36.42
2019-05-18T12:23:26.955Z,36.40
2019-05-18T12:24:26.973Z,34.47
2019-05-18T12:25:27.014Z,32.31
2019-05-18T12:26:27.012Z,33.20
2019-05-18T12:27:27.033Z,35.16
2019-05-18T12:28:27.052Z,35.67
2019-05-18T12:29:27.075Z,34.18
2019-05-18T12:30:27.102Z,35.46
2019-05-18T12:31:27.111Z,37.13
2019-05-18T12:32:27.127Z,33.77
2019-05-18T12:33:27.166Z,35.46
2019-05-18T12:34:27.174Z,36.36
2019-05-18T12:35:27.193Z,32.92
2019-05-18T12:36:27.215Z,33.70
2019-05-18T12:37:27.235Z,32.34
2019-05-18T12:38:27.254Z,34.39
2019-05-18T12:39:27.279Z,34.30
2019-05-18T12:40:27.300Z,32.46
2019-05-18T12:41:27.320Z,35.11
2019-05-18T12:42:27.336Z,33.94
2019-05-18T12:43:27.411Z,35.11
2019-05-18T12:44:27.384Z,35.41
2019-05-18T12:45:27.402Z,36.70
2019-05-18T12:46:27.414Z,33.26
2019-05-18T12:47:27.436Z,33.26
2019-05-18T12:48:27.459Z,34.36
2019-05-18T12:49:27.481Z,33.58
2019-05-18T12:50:27.495Z,31.50
2019-05-18T12:51:27.513Z,32.17
2019-05-18T12:52:27.534Z,35.11
2019-05-18T12:53:27.560Z,33.34
2019-05-18T12:54:33.969Z,31.74
2019-05-18T12:55:27.594Z,32.43
2019-05-18T12:56:27.614Z,34.08
2019-05-18T12:57:27.639Z,35.85
2019-05-18T12:58:27.671Z,36.51
2019-05-18T12:59:27.675Z,36.88
2019-05-18T13:00:27.712Z,37.75
2019-05-18T13:01:27.708Z,36.79
2019-05-18T13:02:27.724Z,36.57
2019-05-18T13:03:27.747Z,37.16
2019-05-18T13:04:27.767Z,37.14
2019-05-18T13:05:27.790Z,38.59
2019-05-18T13:06:27.806Z,41.70
2019-05-18T13:07:27.826Z,39.16
2019-05-18T13:08:27.846Z,39.94
2019-05-18T13:09:27.859Z,40.14
2019-05-18T13:10:27.880Z,39.16
2019-05-18T13:11:27.897Z,41.02
2019-05-18T13:12:27.922Z,40.43
2019-05-18T13:13:27.934Z,40.53